Time;durP1;ratioP1;P1;durP2;ratioP2;P2;SDS_P1;SDS_P2;PMS_P1;PMS_P2;Temp;Humidity;BMP_temperature;BMP_pressure;BME280_temperature;BME280_humidity;BME280_pressure;Samples;Min_cycle;Max_cycle;Signal;HPM_P1;HPM_P2
2021/12/19 00:04:29;;;;;;;34.05;14.55;;;;;;;6.19;100.00;103328.00;4980248;28;20066;-79
2021/12/19 00:09:39;;;;;;;37.88;14.20;;;;;;;6.23;100.00;103324.28;4969151;28;20082;-79
2021/12/19 00:12:05;;;;;;;39.75;15.38;;;;;;;6.19;100.00;103320.75;4943533;29;20051;-78
2021/12/19 00:14:31;;;;;;;29.35;13.25;;;;;;;6.15;100.00;103319.03;4959384;28;20069;-79
2021/12/19 00:16:57;;;;;;;28.77;12.70;;;;;;;6.17;100.00;103319.00;4957632;29;20027;-78
2021/12/19 00:19:23;;;;;;;26.48;11.32;;;;;;;6.18;100.00;103315.31;4959223;28;20766;-79
2021/12/19 00:21:49;;;;;;;28.02;11.80;;;;;;;6.20;100.00;103308.06;4942051;29;20369;-80
2021/12/19 00:24:15;;;;;;;35.47;12.82;;;;;;;6.19;100.00;103306.25;4959822;28;20069;-80
2021/12/19 00:26:42;;;;;;;28.60;12.20;;;;;;;6.15;100.00;103299.06;4959304;28;20040;-79
2021/12/19 00:29:08;;;;;;;28.33;11.32;;;;;;;6.15;100.00;103296.34;4959912;28;20066;-78
2021/12/19 00:31:34;;;;;;;29.27;11.80;;;;;;;6.21;100.00;103299.84;4974349;28;20035;-79
2021/12/19 00:34:00;;;;;;;31.90;12.32;;;;;;;6.20;100.00;103305.34;4961461;28;20043;-79
2021/12/19 00:36:25;;;;;;;24.23;10.95;;;;;;;6.16;100.00;103300.88;4980841;28;20034;-79
2021/12/19 00:38:52;;;;;;;25.50;11.48;;;;;;;6.15;100.00;103304.50;4982081;28;20098;-79
2021/12/19 00:41:17;;;;;;;27.27;12.38;;;;;;;6.07;100.00;103291.09;4966505;28;20039;-79
2021/12/19 00:44:08;;;;;;;32.75;12.68;;;;;;;6.13;100.00;103295.50;4969825;28;20086;-80
2021/12/19 00:46:42;;;;;;;26.50;10.40;;;;;;;6.15;100.00;103299.97;4951477;28;20070;-79
2021/12/19 00:49:09;;;;;;;26.52;10.40;;;;;;;6.17;100.00;103294.50;4972462;28;20069;-79
2021/12/19 00:51:34;;;;;;;22.00;9.82;;;;;;;6.15;100.00;103293.63;4973937;28;20097;-78
2021/12/19 00:54:00;;;;;;;22.30;10.13;;;;;;;6.16;100.00;103292.72;4942146;29;20027;-78
2021/12/19 00:56:25;;;;;;;22.33;10.10;;;;;;;6.18;100.00;103299.00;4959011;28;20114;-79
2021/12/19 00:58:51;;;;;;;20.38;9.40;;;;;;;6.16;100.00;103296.31;4973882;28;20035;-79
2021/12/19 01:01:17;;;;;;;28.13;10.13;;;;;;;6.12;100.00;103289.16;4958272;28;20090;-79
2021/12/19 01:03:44;;;;;;;25.30;10.32;;;;;;;6.14;100.00;103292.75;4958190;28;20035;-79
2021/12/19 01:06:10;;;;;;;28.15;10.45;;;;;;;6.12;100.00;103288.28;4956372;28;20035;-79
2021/12/19 01:08:35;;;;;;;24.55;10.73;;;;;;;6.11;100.00;103276.47;4958190;29;20046;-79
2021/12/19 01:11:01;;;;;;;24.70;9.98;;;;;;;6.12;100.00;103280.13;4961684;28;20143;-80
2021/12/19 01:13:26;;;;;;;30.55;10.30;;;;;;;6.15;100.00;103291.81;4956931;28;20463;-80
2021/12/19 01:15:53;;;;;;;31.63;10.88;;;;;;;6.12;100.00;103294.59;4973290;28;20126;-79
2021/12/19 01:18:19;;;;;;;29.67;11.25;;;;;;;6.11;100.00;103297.34;4941634;29;20035;-81
2021/12/19 01:20:45;;;;;;;33.35;12.18;;;;;;;6.05;100.00;103276.59;4956624;28;20086;-78
2021/12/19 01:23:11;;;;;;;29.50;10.75;;;;;;;6.10;100.00;103276.50;4958998;28;20054;-79
2021/12/19 01:25:37;;;;;;;29.10;11.05;;;;;;;6.09;100.00;103282.91;4942905;29;20369;-79
2021/12/19 01:28:03;;;;;;;34.15;11.70;;;;;;;6.01;100.00;103262.19;4959480;28;20039;-79
2021/12/19 01:30:29;;;;;;;41.78;13.30;;;;;;;6.10;100.00;103276.50;4966461;28;20035;-78
2021/12/19 01:32:55;;;;;;;34.88;10.65;;;;;;;6.06;100.00;103273.84;4970074;28;20038;-79
2021/12/19 01:35:23;;;;;;;35.22;10.80;;;;;;;6.10;100.00;103274.72;4968914;28;20031;-78
2021/12/19 01:37:49;;;;;;;34.05;11.02;;;;;;;6.10;100.00;103269.28;4956714;29;20030;-79
2021/12/19 01:40:17;;;;;;;45.85;12.45;;;;;;;6.02;100.00;103254.94;4976074;28;20134;-79
2021/12/19 01:42:45;;;;;;;39.03;11.85;;;;;;;6.07;100.00;103256.63;4937545;28;20035;-79
2021/12/19 01:45:13;;;;;;;42.35;11.30;;;;;;;6.04;100.00;103253.97;4957045;28;20035;-79
2021/12/19 01:47:41;;;;;;;43.85;13.88;;;;;;;5.99;100.00;103250.44;4971998;28;20098;-79
2021/12/19 01:50:09;;;;;;;48.40;14.57;;;;;;;6.00;100.00;103254.97;4956745;28;20077;-79
2021/12/19 01:52:35;;;;;;;52.70;14.20;;;;;;;6.07;100.00;103255.72;4956569;29;20522;-79
2021/12/19 01:55:00;;;;;;;42.70;14.02;;;;;;;6.08;100.00;103260.22;4956793;28;20032;-79
2021/12/19 01:57:27;;;;;;;51.00;14.32;;;;;;;6.06;100.00;103262.09;4972509;28;20049;-78
2021/12/19 01:59:54;;;;;;;59.88;17.08;;;;;;;6.00;100.00;103254.97;4963905;28;20023;-78
2021/12/19 02:02:20;;;;;;;51.40;16.48;;;;;;;6.02;100.00;103253.09;4972469;28;20046;-78
2021/12/19 02:04:45;;;;;;;63.75;17.33;;;;;;;5.98;100.00;103245.03;4940490;29;20027;-78
2021/12/19 02:07:12;;;;;;;69.18;17.17;;;;;;;6.06;100.00;103254.81;4973352;28;20039;-78
2021/12/19 02:09:39;;;;;;;66.18;17.60;;;;;;;6.06;100.00;103252.09;4972390;28;20031;-78
2021/12/19 02:12:04;;;;;;;69.50;18.45;;;;;;;6.03;100.00;103245.84;4958655;28;20051;-78
2021/12/19 02:14:30;;;;;;;71.50;19.20;;;;;;;6.02;100.00;103253.09;4957524;28;20157;-78
2021/12/19 02:16:56;;;;;;;74.32;19.63;;;;;;;6.01;100.00;103250.41;4960793;28;20114;-78
2021/12/19 02:19:24;;;;;;;72.93;20.40;;;;;;;5.99;100.00;103244.13;4945949;28;20043;-78
2021/12/19 02:21:50;;;;;;;79.03;19.42;;;;;;;5.97;100.00;103249.59;4959062;29;20031;-78
2021/12/19 02:24:16;;;;;;;90.20;21.23;;;;;;;5.87;100.00;103220.75;4961311;28;20039;-79
2021/12/19 02:26:43;;;;;;;85.00;21.60;;;;;;;5.91;100.00;103221.59;4958281;28;20045;-78
2021/12/19 02:29:11;;;;;;;94.05;22.75;;;;;;;5.95;100.00;103239.63;4959582;29;20035;-79
2021/12/19 02:31:36;;;;;;;82.95;21.85;;;;;;;5.91;100.00;103224.31;4959232;29;20468;-79
2021/12/19 02:34:19;;;;;;;82.78;21.38;;;;;;;5.96;100.00;103223.31;4943977;29;20031;-79
2021/12/19 02:50:03;;;;;;;100.97;22.70;;;;;;;5.88;100.00;103211.69;4958166;28;20034;-79
2021/12/19 02:52:29;;;;;;;103.20;21.40;;;;;;;5.88;100.00;103204.41;4974987;28;20395;-79
2021/12/19 02:54:54;;;;;;;93.72;20.35;;;;;;;5.82;100.00;103195.50;4958990;28;20045;-79
2021/12/19 02:57:20;;;;;;;107.63;21.05;;;;;;;5.89;100.00;103205.31;4945399;29;20043;-79
2021/12/19 02:59:45;;;;;;;109.78;20.52;;;;;;;5.80;100.00;103190.09;4959848;28;20035;-79
2021/12/19 03:02:11;;;;;;;86.57;19.92;;;;;;;5.82;100.00;103193.69;4942859;29;20126;-79
2021/12/19 03:04:36;;;;;;;103.50;20.15;;;;;;;5.82;100.00;103195.50;4940108;29;20085;-79
2021/12/19 03:07:02;;;;;;;88.05;18.55;;;;;;;5.88;100.00;103200.81;4962020;28;20376;-79
2021/12/19 03:12:07;;;;;;;101.45;19.83;;;;;;;5.87;100.00;103191.75;4959650;28;20080;-80
2021/12/19 03:20:03;;;;;;;112.32;20.50;;;;;;;5.86;100.00;103192.69;4959482;29;20054;-80
2021/12/19 03:22:29;;;;;;;106.90;19.02;;;;;;;5.81;100.00;103181.00;4960123;28;20451;-79
2021/12/19 03:24:54;;;;;;;110.57;22.25;;;;;;;5.80;100.00;103178.31;4960217;28;20054;-79
2021/12/19 03:27:20;;;;;;;143.23;22.60;;;;;;;5.81;100.00;103177.41;4961524;28;20034;-79
2021/12/19 03:29:45;;;;;;;130.95;23.17;;;;;;;5.75;100.00;103170.25;4959307;28;20024;-79
2021/12/19 03:32:11;;;;;;;132.80;20.88;;;;;;;5.70;100.00;103174.91;4974263;28;20031;-79
2021/12/19 03:34:36;;;;;;;102.47;19.55;;;;;;;5.80;100.00;103178.31;4968152;28;20090;-79
2021/12/19 03:37:03;;;;;;;119.03;19.90;;;;;;;5.68;100.00;103177.66;4957970;28;20023;-79
2021/12/19 03:39:37;;;;;;;109.30;21.38;;;;;;;5.71;100.00;103172.16;4959128;28;20086;-79
2021/12/19 03:42:04;;;;;;;117.10;20.30;;;;;;;5.67;100.00;103183.13;4957991;29;20066;-79
2021/12/19 03:44:30;;;;;;;132.63;21.48;;;;;;;5.60;100.00;103186.91;4973912;28;20039;-79
2021/12/19 03:46:56;;;;;;;137.68;24.35;;;;;;;5.60;100.00;103171.47;4959392;28;20046;-79
2021/12/19 03:49:21;;;;;;;140.52;22.67;;;;;;;5.65;100.00;103174.13;4942357;28;20038;-79
2021/12/19 03:51:47;;;;;;;120.22;21.42;;;;;;;5.55;100.00;103176.13;4974204;28;20045;-79
2021/12/19 03:54:13;;;;;;;117.07;20.67;;;;;;;5.59;100.00;103175.16;4958314;28;20051;-79
2021/12/19 03:56:39;;;;;;;115.45;18.98;;;;;;;5.44;100.00;103164.56;4969457;28;20082;-79
2021/12/19 03:59:04;;;;;;;134.85;21.73;;;;;;;5.42;100.00;103167.31;4958324;29;20039;-79
2021/12/19 04:01:29;;;;;;;110.55;20.15;;;;;;;5.46;100.00;103162.72;4957662;29;20094;-78
2021/12/19 04:03:57;;;;;;;121.85;20.15;;;;;;;5.52;100.00;103162.59;4956703;28;20450;-80
2021/12/19 04:06:22;;;;;;;124.20;22.80;;;;;;;5.43;100.00;103163.69;4983996;28;20041;-79
2021/12/19 04:08:50;;;;;;;163.05;22.58;;;;;;;5.40;100.00;103166.47;4964438;28;20035;-79
2021/12/19 04:11:15;;;;;;;115.90;22.73;;;;;;;5.38;100.00;103161.97;4957028;28;20024;-79
2021/12/19 04:13:41;;;;;;;126.60;23.17;;;;;;;5.33;100.00;103149.41;4941176;29;20055;-79
2021/12/19 04:16:06;;;;;;;136.98;24.60;;;;;;;5.36;100.00;103148.41;4952690;29;20035;-79
2021/12/19 04:18:32;;;;;;;121.22;24.30;;;;;;;5.33;100.00;103148.50;4958299;29;20035;-78
2021/12/19 04:20:57;;;;;;;122.03;23.88;;;;;;;5.37;100.00;103143.91;4957741;29;20039;-79
2021/12/19 04:23:23;;;;;;;129.38;24.95;;;;;;;5.32;100.00;103134.00;4964873;28;20039;-79
2021/12/19 04:25:50;;;;;;;131.38;24.90;;;;;;;5.28;100.00;103129.59;4973135;28;20576;-78
2021/12/19 04:28:15;;;;;;;145.60;25.38;;;;;;;5.36;100.00;103128.53;4973812;28;20050;-79
2021/12/19 04:30:41;;;;;;;140.13;25.80;;;;;;;5.34;100.00;103113.16;4974938;28;20041;-79
2021/12/19 04:33:10;;;;;;;139.23;27.20;;;;;;;5.33;100.00;103108.66;4958788;29;20118;-79
2021/12/19 04:35:40;;;;;;;147.02;28.08;;;;;;;5.38;100.00;103115.78;4973515;28;20399;-79
2021/12/19 04:39:01;;;;;;;146.75;26.15;;;;;;;5.37;100.00;103108.59;4957282;28;20093;-79
2021/12/19 04:44:37;;;;;;;141.98;25.77;;;;;;;5.40;100.00;103095.84;4967727;28;20035;-79
2021/12/19 04:52:18;;;;;;;120.07;22.20;;;;;;;5.43;100.00;103094.88;4958248;29;20037;-79
2021/12/19 05:00:05;;;;;;;106.03;18.25;;;;;;;5.23;100.00;103098.00;4973121;28;20046;-79
2021/12/19 05:15:50;;;;;;;65.60;13.13;;;;;;;5.06;100.00;103101.94;4957888;29;20378;-78
2021/12/19 05:18:17;;;;;;;61.55;12.23;;;;;;;5.11;100.00;103101.84;4941129;28;20538;-78
2021/12/19 05:20:52;;;;;;;48.38;10.77;;;;;;;5.16;100.00;103105.38;4959076;28;20035;-78
2021/12/19 05:25:55;;;;;;;57.65;11.95;;;;;;;5.16;100.00;103113.53;4957688;28;20036;-79
2021/12/19 05:28:22;;;;;;;57.22;11.70;;;;;;;5.13;100.00;103106.34;4957981;28;20038;-78
2021/12/19 05:30:48;;;;;;;60.50;12.02;;;;;;;5.13;100.00;103105.44;4967706;28;20043;-79
2021/12/19 05:33:13;;;;;;;49.75;10.82;;;;;;;5.09;100.00;103109.16;4970584;28;20423;-79
2021/12/19 05:46:33;;;;;;;25.05;6.45;;;;;;;5.02;100.00;103088.44;4958176;29;20063;-79
2021/12/19 05:48:58;;;;;;;26.25;6.65;;;;;;;4.99;100.00;103085.81;4982694;28;20043;-79
2021/12/19 05:51:24;;;;;;;21.15;6.22;;;;;;;5.01;100.00;103089.41;4956806;28;20476;-79
2021/12/19 05:53:49;;;;;;;28.65;6.35;;;;;;;5.02;100.00;103086.66;4943986;28;20042;-79
2021/12/19 05:56:15;;;;;;;24.40;5.82;;;;;;;4.98;100.00;103082.19;4961221;29;20034;-79
2021/12/19 05:58:41;;;;;;;23.10;6.25;;;;;;;5.08;100.00;103072.97;4961201;28;20033;-79
2021/12/19 06:01:06;;;;;;;17.38;5.18;;;;;;;5.03;100.00;103082.13;4943411;29;20130;-79
2021/12/19 06:03:32;;;;;;;16.00;4.72;;;;;;;4.99;100.00;103065.00;4956160;29;20036;-79
2021/12/19 06:05:57;;;;;;;11.13;4.43;;;;;;;5.09;100.00;103072.03;4966874;28;20058;-79
2021/12/19 06:08:22;;;;;;;14.25;3.92;;;;;;;5.08;100.00;103070.25;4960524;28;20046;-79
2021/12/19 06:10:48;;;;;;;10.75;3.58;;;;;;;5.03;100.00;103082.13;4960829;28;20030;-79
2021/12/19 06:13:14;;;;;;;15.43;4.10;;;;;;;5.10;100.00;103075.63;4943833;28;20058;-81
2021/12/19 06:15:39;;;;;;;15.10;4.50;;;;;;;5.15;100.00;103073.72;4961030;29;20043;-79
2021/12/19 06:18:05;;;;;;;14.77;4.53;;;;;;;5.05;100.00;103059.44;4963819;28;20042;-79
2021/12/19 06:20:34;;;;;;;19.27;4.55;;;;;;;5.02;100.00;103073.09;4964202;28;20028;-80
2021/12/19 06:23:00;;;;;;;14.85;4.45;;;;;;;5.02;100.00;103064.94;4952644;29;20023;-80
2021/12/19 06:25:26;;;;;;;19.23;4.93;;;;;;;5.02;100.00;103064.03;4965672;28;20035;-80
2021/12/19 06:27:51;;;;;;;20.85;5.32;;;;;;;5.09;100.00;103065.69;4967863;28;20103;-80
2021/12/19 06:30:17;;;;;;;19.50;4.93;;;;;;;5.01;100.00;103057.72;4982706;28;20391;-80
2021/12/19 06:32:42;;;;;;;24.02;4.88;;;;;;;5.09;100.00;103063.00;4960342;28;20043;-80
2021/12/19 06:35:17;;;;;;;24.50;5.05;;;;;;;5.09;100.00;103049.41;4958490;28;20047;-80
2021/12/19 06:37:44;;;;;;;26.27;5.10;;;;;;;5.09;100.00;103054.84;4940065;28;20050;-80
2021/12/19 06:40:12;;;;;;;22.25;5.28;;;;;;;5.14;100.00;103047.50;4962676;28;20062;-81
2021/12/19 06:42:39;;;;;;;19.23;5.05;;;;;;;5.11;100.00;103037.56;4957780;29;20027;-80
2021/12/19 06:45:05;;;;;;;26.45;5.78;;;;;;;5.13;100.00;103035.75;4975693;28;20082;-80
2021/12/19 06:47:31;;;;;;;27.10;6.05;;;;;;;5.11;100.00;103043.00;4944120;29;20118;-79
2021/12/19 06:49:57;;;;;;;30.25;5.88;;;;;;;5.14;100.00;103044.78;4977116;28;20059;-78
2021/12/19 06:52:22;;;;;;;31.17;6.22;;;;;;;5.14;100.00;103040.22;4945094;29;20148;-79
2021/12/19 06:54:48;;;;;;;27.08;5.85;;;;;;;5.11;100.00;103031.25;4961082;28;20034;-80
2021/12/19 06:57:13;;;;;;;27.85;5.60;;;;;;;5.14;100.00;103031.19;4948949;28;20045;-79
2021/12/19 06:59:39;;;;;;;32.03;5.85;;;;;;;5.19;100.00;103031.09;4956063;28;20648;-79
2021/12/19 07:02:04;;;;;;;21.52;5.65;;;;;;;5.11;100.00;103021.28;4970960;28;20535;-79
2021/12/19 07:04:30;;;;;;;31.45;6.45;;;;;;;5.16;100.00;103032.06;4956699;28;20027;-79
2021/12/19 07:06:55;;;;;;;37.92;5.93;;;;;;;5.19;100.00;103025.69;4941898;29;20513;-79
2021/12/19 07:09:21;;;;;;;33.67;5.93;;;;;;;5.17;100.00;103022.09;4965842;28;20031;-79
2021/12/19 07:11:47;;;;;;;34.45;5.28;;;;;;;5.23;100.00;103021.94;4956093;28;20047;-80
2021/12/19 07:14:13;;;;;;;28.50;5.55;;;;;;;5.19;100.00;103022.97;4960090;28;20039;-79
2021/12/19 07:16:38;;;;;;;29.40;6.40;;;;;;;5.23;100.00;103019.25;4958655;28;20040;-80
2021/12/19 07:19:04;;;;;;;34.78;6.85;;;;;;;5.21;100.00;103015.66;4959446;28;20047;-80
2021/12/19 07:21:29;;;;;;;26.73;6.20;;;;;;;5.14;100.00;103009.47;4946673;29;20479;-79
2021/12/19 07:23:55;;;;;;;26.23;5.70;;;;;;;5.22;100.00;103029.22;4973734;28;20102;-79
2021/12/19 07:26:21;;;;;;;39.08;6.30;;;;;;;5.18;100.00;103016.63;4973800;28;20040;-79
2021/12/19 07:28:48;;;;;;;27.88;6.18;;;;;;;5.16;100.00;103013.03;4958068;29;20032;-78
2021/12/19 07:31:16;;;;;;;28.73;6.60;;;;;;;5.23;100.00;103024.66;4953154;29;20031;-79
2021/12/19 07:33:44;;;;;;;30.60;6.05;;;;;;;5.31;100.00;103014.53;4958143;28;20070;-80
2021/12/19 07:36:09;;;;;;;27.48;6.90;;;;;;;5.25;100.00;103007.44;4974294;28;20058;-80
2021/12/19 07:38:47;;;;;;;25.33;6.50;;;;;;;5.27;100.00;103011.00;4974159;28;20039;-79
2021/12/19 07:41:12;;;;;;;31.48;6.30;;;;;;;5.22;100.00;103007.50;4974599;28;20039;-80
2021/12/19 07:43:38;;;;;;;30.10;7.75;;;;;;;5.21;100.00;103005.69;4946565;29;20034;-81
2021/12/19 07:46:03;;;;;;;23.65;6.60;;;;;;;5.20;100.00;103003.91;4974810;28;20066;-80
2021/12/19 07:48:28;;;;;;;24.77;7.50;;;;;;;5.29;100.00;103006.41;4959349;29;20384;-80
2021/12/19 07:50:54;;;;;;;30.77;7.50;;;;;;;5.28;100.00;103001.00;4972766;28;20046;-79
2021/12/19 07:53:19;;;;;;;32.22;6.32;;;;;;;5.26;100.00;102994.72;4948939;29;20046;-80
2021/12/19 07:55:45;;;;;;;34.30;8.10;;;;;;;5.32;100.00;103002.75;4957857;28;20035;-79
2021/12/19 07:58:11;;;;;;;40.65;7.53;;;;;;;5.32;100.00;102994.59;4960973;28;20030;-79
2021/12/19 08:00:36;;;;;;;33.67;9.27;;;;;;;5.28;100.00;102999.22;4964016;28;20073;-78
2021/12/19 08:03:02;;;;;;;35.53;8.77;;;;;;;5.27;100.00;102994.69;4962320;28;20074;-79
2021/12/19 08:05:28;;;;;;;33.38;8.43;;;;;;;5.29;100.00;102981.97;4942280;29;20402;-80
2021/12/19 08:08:01;;;;;;;38.60;9.38;;;;;;;5.35;100.00;102986.38;4959702;28;20046;-79
2021/12/19 08:12:59;;;;;;;35.95;7.65;;;;;;;5.42;100.00;102987.13;4958613;28;20066;-80
2021/12/19 08:15:24;;;;;;;48.90;9.93;;;;;;;5.37;100.00;102978.22;4974158;28;20028;-80
2021/12/19 08:17:50;;;;;;;33.13;8.05;;;;;;;5.44;100.00;102988.88;4950721;29;20061;-80
2021/12/19 08:20:17;;;;;;;38.65;9.35;;;;;;;5.41;100.00;102986.25;4954949;29;20027;-80
2021/12/19 08:22:44;;;;;;;41.85;9.23;;;;;;;5.46;100.00;102989.75;4974722;28;20395;-81
2021/12/19 08:25:09;;;;;;;39.83;9.50;;;;;;;5.48;100.00;102987.00;4960163;28;20038;-81
2021/12/19 08:27:37;;;;;;;48.00;9.50;;;;;;;5.49;100.00;102988.78;4941477;28;20038;-80
2021/12/19 08:30:08;;;;;;;48.42;9.50;;;;;;;5.48;100.00;102984.28;4959996;28;20043;-81
2021/12/19 08:32:34;;;;;;;46.17;9.18;;;;;;;5.52;100.00;102988.69;4967075;28;20046;-81
2021/12/19 08:35:00;;;;;;;46.03;9.80;;;;;;;5.60;100.00;102973.13;4956289;28;20035;-80
2021/12/19 08:37:25;;;;;;;45.70;10.02;;;;;;;5.74;100.00;102982.75;4941150;29;20108;-81
2021/12/19 08:39:51;;;;;;;39.92;10.10;;;;;;;5.66;100.00;102980.25;4941776;29;20093;-80
2021/12/19 08:42:17;;;;;;;42.53;10.15;;;;;;;5.62;100.00;102973.97;4972622;28;20475;-79
2021/12/19 08:44:43;;;;;;;46.58;10.35;;;;;;;5.63;100.00;102980.31;4974217;28;20074;-85
2021/12/19 08:47:09;;;;;;;43.50;10.90;;;;;;;5.66;100.00;102982.97;4959966;28;20035;-79
2021/12/19 08:49:35;;;;;;;50.90;12.00;;;;;;;5.65;100.00;102973.00;4938323;28;20372;-79
2021/12/19 08:52:02;;;;;;;44.03;11.07;;;;;;;5.68;100.00;102976.53;4972970;28;20031;-80
2021/12/19 08:54:27;;;;;;;47.50;10.88;;;;;;;5.67;100.00;102969.34;4975271;28;20062;-80
2021/12/19 08:56:53;;;;;;;42.95;11.05;;;;;;;5.70;100.00;102969.22;4975839;28;20487;-80
2021/12/19 08:59:18;;;;;;;40.33;11.38;;;;;;;5.73;100.00;102970.13;4973551;28;20043;-79
2021/12/19 09:01:44;;;;;;;48.78;10.98;;;;;;;5.73;100.00;102967.41;4957994;28;20027;-81
2021/12/19 09:04:10;;;;;;;48.75;10.85;;;;;;;5.76;100.00;102967.31;4956594;29;20047;-81
2021/12/19 09:06:36;;;;;;;51.65;12.15;;;;;;;5.75;100.00;102965.53;4954736;28;20098;-80
2021/12/19 09:09:04;;;;;;;46.63;12.02;;;;;;;5.81;100.00;102973.53;4941987;28;20035;-81
2021/12/19 09:11:31;;;;;;;46.65;11.90;;;;;;;5.74;100.00;102967.34;4960231;28;20038;-81
2021/12/19 09:13:56;;;;;;;44.65;11.70;;;;;;;5.79;100.00;102964.50;4937792;29;20384;-80
2021/12/19 09:16:22;;;;;;;46.28;12.27;;;;;;;5.81;100.00;102959.94;4955484;28;20051;-80
2021/12/19 09:18:48;;;;;;;47.78;12.70;;;;;;;5.80;100.00;102964.47;4956280;28;20047;-79
2021/12/19 09:21:13;;;;;;;43.45;11.52;;;;;;;5.83;100.00;102968.94;4957883;29;20039;-80
2021/12/19 09:23:39;;;;;;;52.72;12.80;;;;;;;5.93;100.00;102970.50;4956426;28;20095;-80
2021/12/19 09:26:06;;;;;;;45.25;11.10;;;;;;;5.87;100.00;102971.56;4959939;28;20066;-81
2021/12/19 09:28:31;;;;;;;43.15;12.00;;;;;;;5.90;100.00;102967.84;4945373;29;20043;-80
2021/12/19 09:30:57;;;;;;;44.60;12.32;;;;;;;5.92;100.00;102967.81;4963479;28;20035;-81
2021/12/19 09:33:22;;;;;;;49.20;12.45;;;;;;;5.94;100.00;102961.41;4955571;29;20166;-80
2021/12/19 09:35:48;;;;;;;52.50;13.65;;;;;;;5.87;100.00;102940.72;4963048;28;20035;-81
2021/12/19 09:38:14;;;;;;;42.97;13.00;;;;;;;6.02;100.00;102958.53;4962896;28;20035;-81
2021/12/19 09:40:42;;;;;;;39.80;10.77;;;;;;;6.05;100.00;102966.59;4961245;28;20097;-80
2021/12/19 09:46:10;;;;;;;41.72;12.23;;;;;;;6.10;100.00;102950.16;4959791;28;20388;-79
2021/12/19 09:48:38;;;;;;;39.85;12.13;;;;;;;6.10;100.00;102958.31;4943696;29;20054;-78
2021/12/19 09:51:04;;;;;;;41.70;11.75;;;;;;;6.12;100.00;102961.91;4943826;29;20053;-80
2021/12/19 09:53:29;;;;;;;44.05;13.18;;;;;;;5.94;100.00;102928.78;4959833;29;20109;-82
2021/12/19 09:55:54;;;;;;;49.65;12.18;;;;;;;6.11;100.00;102951.97;4944456;29;20105;-80
2021/12/19 09:58:20;;;;;;;38.17;11.38;;;;;;;6.13;100.00;102948.25;4975031;28;20059;-80
2021/12/19 10:00:45;;;;;;;34.72;11.27;;;;;;;6.15;100.00;102949.13;4941201;28;20599;-79
2021/12/19 10:03:11;;;;;;;36.25;12.25;;;;;;;6.15;100.00;102956.38;4953301;29;20089;-77
2021/12/19 10:05:37;;;;;;;36.25;11.48;;;;;;;6.13;100.00;102947.34;4972352;28;20037;-78
2021/12/19 10:08:03;;;;;;;39.85;11.73;;;;;;;6.19;100.00;102948.09;4956840;28;20071;-78
2021/12/19 10:10:59;;;;;;;41.03;12.18;;;;;;;6.18;100.00;102948.13;4957112;28;20046;-78
2021/12/19 10:13:33;;;;;;;40.88;12.45;;;;;;;6.21;100.00;102948.94;4975089;28;20511;-78
2021/12/19 10:15:59;;;;;;;47.35;11.95;;;;;;;6.20;100.00;102946.28;4960934;28;20042;-78
2021/12/19 10:18:25;;;;;;;28.85;10.95;;;;;;;6.31;100.00;102938.69;4956497;28;20620;-79
2021/12/19 10:20:54;;;;;;;37.50;11.95;;;;;;;6.23;100.00;102927.13;4960682;29;20042;-78
2021/12/19 10:23:23;;;;;;;34.85;11.77;;;;;;;6.23;100.00;102940.72;4961773;28;20058;-78
2021/12/19 10:26:00;;;;;;;39.65;11.68;;;;;;;6.27;100.00;102931.56;4961023;29;20039;-78
2021/12/19 10:28:27;;;;;;;40.42;12.20;;;;;;;6.19;100.00;102929.03;4975593;28;20167;-78
2021/12/19 10:30:53;;;;;;;28.58;9.48;;;;;;;6.23;100.00;102932.56;4962736;28;20524;-79
2021/12/19 10:33:23;;;;;;;31.00;9.93;;;;;;;6.18;100.00;102910.97;4962718;29;20060;-78
2021/12/19 10:35:50;;;;;;;29.67;10.15;;;;;;;6.28;100.00;102918.84;4976675;28;20031;-79
2021/12/19 10:38:20;;;;;;;31.02;9.40;;;;;;;6.27;100.00;102912.53;4977781;28;20031;-79
2021/12/19 10:40:53;;;;;;;24.15;7.75;;;;;;;6.28;100.00;102918.84;4977942;28;20066;-79
2021/12/19 10:43:19;;;;;;;;;;;;;;;6.34;100.00;102915.97;4957809;28;20038;-78
2021/12/19 10:45:54;;;;;;;24.73;7.05;;;;;;;6.33;100.00;102914.16;4939849;29;20351;-79
2021/12/19 10:48:55;;;;;;;27.80;7.93;;;;;;;6.35;100.00;102909.59;4971017;28;20051;-78
2021/12/19 10:51:21;;;;;;;22.95;6.38;;;;;;;6.26;100.00;102902.56;4968233;28;20051;-79
2021/12/19 10:53:53;;;;;;;18.90;5.97;;;;;;;6.31;100.00;102902.44;4945188;29;20458;-79
2021/12/19 10:56:21;;;;;;;14.02;4.88;;;;;;;6.29;100.00;102907.03;4969552;28;20055;-79
2021/12/19 10:59:09;;;;;;;12.68;4.95;;;;;;;6.27;100.00;102896.22;4955308;29;20077;-77
2021/12/19 11:01:37;;;;;;;11.52;4.28;;;;;;;6.30;100.00;102892.53;4956350;28;20727;-78
2021/12/19 11:04:09;;;;;;;13.05;4.43;;;;;;;6.31;100.00;102888.84;4962132;28;20440;-79
2021/12/19 11:06:44;;;;;;;12.18;3.55;;;;;;;6.28;100.00;102883.47;4978294;28;20047;-77
2021/12/19 11:09:14;;;;;;;12.73;4.22;;;;;;;6.31;100.00;102880.69;4961443;28;20067;-78
2021/12/19 11:11:48;;;;;;;14.63;3.53;;;;;;;6.25;100.00;102877.22;4953898;29;20039;-78
2021/12/19 11:14:30;;;;;;;9.15;2.85;;;;;;;6.24;100.00;102872.69;4964600;28;20084;-78
2021/12/19 11:16:59;;;;;;;15.50;3.28;;;;;;;6.24;100.00;102867.25;4962836;28;20091;-78
2021/12/19 11:19:27;;;;;;;7.32;2.50;;;;;;;6.24;100.00;102863.66;4964597;28;20059;-77
2021/12/19 11:21:53;;;;;;;9.15;2.50;;;;;;;6.24;100.00;102863.66;4960171;29;20035;-77
2021/12/19 11:24:21;;;;;;;6.38;2.20;;;;;;;6.15;100.00;102859.38;4983372;28;20046;-77
2021/12/19 11:26:49;;;;;;;6.72;2.47;;;;;;;6.13;100.00;102855.78;4959704;29;20039;-77
2021/12/19 11:29:16;;;;;;;5.95;2.08;;;;;;;6.11;100.00;102845.91;4967075;28;20031;-78
2021/12/19 11:31:46;;;;;;;7.15;2.42;;;;;;;6.09;100.00;102834.19;4957300;29;20476;-78
2021/12/19 11:34:18;;;;;;;8.27;2.67;;;;;;;6.14;100.00;102845.81;4956806;28;20041;-78
2021/12/19 11:37:07;;;;;;;6.57;2.33;;;;;;;6.16;100.00;102846.66;4962349;28;20078;-78
2021/12/19 11:39:36;;;;;;;5.50;2.63;;;;;;;6.10;100.00;102833.22;4962807;28;20047;-77
2021/12/19 11:42:27;;;;;;;7.43;2.30;;;;;;;6.21;100.00;102840.13;4957447;28;20487;-79
2021/12/19 11:47:42;;;;;;;9.82;2.25;;;;;;;6.26;100.00;102840.00;4970763;28;20579;-78
2021/12/19 11:50:11;;;;;;;4.85;2.85;;;;;;;6.31;100.00;102832.59;4953970;28;20039;-77
2021/12/19 11:52:37;;;;;;;5.20;2.90;;;;;;;6.36;100.00;102829.75;4952371;28;20019;-78
2021/12/19 11:55:14;;;;;;;6.45;2.92;;;;;;;6.35;100.00;102827.97;4959304;28;20436;-78
2021/12/19 11:58:08;;;;;;;6.45;2.92;;;;;;;6.41;100.00;102827.78;4972621;28;20145;-78
2021/12/19 12:00:33;;;;;;;;;;;;;;;6.43;100.00;102824.09;4948896;29;20038;-77
2021/12/19 12:03:14;;;;;;;3.88;2.35;;;;;;;6.48;100.00;102814.88;4971704;28;19914;-77
2021/12/19 12:05:50;;;;;;;7.85;2.55;;;;;;;6.48;100.00;102813.06;4970365;28;20035;-77
2021/12/19 12:08:24;;;;;;;4.00;2.25;;;;;;;6.44;100.00;102809.56;4959367;28;20051;-78
2021/12/19 12:10:50;;;;;;;5.38;2.35;;;;;;;6.37;100.00;102805.22;4967982;28;20041;-78
2021/12/19 12:13:23;;;;;;;5.80;2.17;;;;;;;6.47;100.00;102799.50;4935259;29;20056;-78
2021/12/19 12:15:53;;;;;;;3.75;1.58;;;;;;;6.37;100.00;102794.34;4975627;28;20031;-79
2021/12/19 12:18:34;;;;;;;3.28;1.67;;;;;;;6.41;100.00;102806.00;4957614;29;20950;-80
2021/12/19 12:21:18;;;;;;;1.83;1.17;;;;;;;6.42;100.00;102803.25;4959200;28;20031;-79
2021/12/19 12:23:51;;;;;;;6.13;1.50;;;;;;;6.43;100.00;102791.44;4966528;28;20040;-79
2021/12/19 12:26:31;;;;;;;4.10;1.48;;;;;;;6.47;100.00;102792.22;4960572;28;20031;-79
2021/12/19 12:28:57;;;;;;;2.63;1.20;;;;;;;6.42;100.00;102781.47;4958919;28;20210;-79
2021/12/19 12:31:27;;;;;;;3.38;1.27;;;;;;;6.60;100.00;102790.03;4974514;28;20570;-79